SAOC/RCU METAR and TAF weather

Enter ICAO airport designator
Station Type Date Time Source
SAOC METAR 2022/01/27 23:00 UTC NOAA

SAOC 272300Z 05008KT CAVOK 21/11 Q1019


Station Type Date Time Source
SAOC Decoded METAR 2022/01/27 23:00 UTC NOAA

Rio Cuarto Aerodrome, Argentina (SAOC) 33-07S 064-14W 421M
Jan 27, 2022 - 06:00 PM EST / 2022.01.27 2300 UTC
Wind: from the NE (050 degrees) at 9 MPH (8 KT):0
Visibility: greater than 7 mile(s):0
Temperature: 69 F (21 C)
Dew Point: 51 F (11 C)
Relative Humidity: 52%
Pressure (altimeter): 30.09 in. Hg (1019 hPa)
ob: SAOC 272300Z 05008KT CAVOK 21/11 Q1019
cycle: 23

Station Type Date Time Source
SAOC TAF 2022/01/17 12:00 UTC NOAA

TAF SAOC 171100Z 1712/1712 20010KT 5000 RA BKN015 FEW050CB TX29/1718Z TN15/1809Z
BECMG 1714/1716 18015KT 9999 SCT040
BECMG 1800/1802 09015KT 7000 RA BKN015 OVC040

Example: see airport list